CFG292D EDDK-GCTS
Flight info
| Callsign | CFG292D |
|---|---|
| Flight time | N/A |
| Altitude | 37000 |
| Route | NVO2R NVO Y868 SOGRI UM617 CIV N872 MEDIL DCT KOVIN DCT NIDUV DCT KIHVI UN872 ERIGA UZ218 FUJTI DCT BAKUP DCT BATAX DCT BEXAL UN866 KONBA |
| Aircraft | A339/H-SADE1E2E3GHIJ3J5M1P2RWXY/LB2D1 |
Departure
| Time | 2026-04-23 12:16 |
|---|---|
| Airport | Cologne Bonn Airport (EDDK) |
Arrival
| Time | N/A |
|---|---|
| Airport | Tenerife Sur Airport (GCTS) |
| Time | Latitude | Longitude | Altitude | Speed | Heading |
|---|---|---|---|---|---|
| 2026-04-23 11:51 | 50.88109 | 7.12100 | 237 ft | 0 kts | 215° |
| 2026-04-23 12:04 | 50.88121 | 7.12115 | 237 ft | 2 kts | 194° |
| 2026-04-23 12:04 | 50.88138 | 7.12122 | 237 ft | 2 kts | 290° |
| 2026-04-23 12:05 | 50.88138 | 7.12149 | 238 ft | 0 kts | 88° |
| 2026-04-23 12:07 | 50.88138 | 7.12165 | 238 ft | 7 kts | 90° |
| 2026-04-23 12:08 | 50.88145 | 7.12328 | 244 ft | 19 kts | 85° |
| 2026-04-23 12:08 | 50.88059 | 7.12551 | 245 ft | 26 kts | 136° |
| 2026-04-23 12:08 | 50.88019 | 7.12612 | 245 ft | 0 kts | 133° |
| 2026-04-23 12:08 | 50.88015 | 7.12616 | 245 ft | 4 kts | 139° |
| 2026-04-23 12:09 | 50.87919 | 7.12630 | 244 ft | 19 kts | 205° |
| 2026-04-23 12:09 | 50.87836 | 7.12623 | 241 ft | 16 kts | 158° |
| 2026-04-23 12:09 | 50.87772 | 7.12829 | 248 ft | 24 kts | 117° |
| 2026-04-23 12:09 | 50.87665 | 7.13021 | 255 ft | 22 kts | 137° |
| 2026-04-23 12:10 | 50.87555 | 7.13181 | 257 ft | 21 kts | 137° |
| 2026-04-23 12:10 | 50.87446 | 7.13336 | 258 ft | 21 kts | 139° |
| 2026-04-23 12:10 | 50.87332 | 7.13491 | 260 ft | 21 kts | 139° |
| 2026-04-23 12:10 | 50.87221 | 7.13641 | 262 ft | 21 kts | 139° |
| 2026-04-23 12:11 | 50.87123 | 7.13783 | 268 ft | 18 kts | 135° |
| 2026-04-23 12:11 | 50.87034 | 7.13920 | 271 ft | 17 kts | 136° |
| 2026-04-23 12:11 | 50.86930 | 7.14001 | 272 ft | 17 kts | 164° |
| 2026-04-23 12:11 | 50.86816 | 7.14078 | 270 ft | 19 kts | 141° |
| 2026-04-23 12:12 | 50.86708 | 7.14177 | 270 ft | 18 kts | 142° |
| 2026-04-23 12:12 | 50.86609 | 7.14319 | 271 ft | 19 kts | 137° |
| 2026-04-23 12:12 | 50.86511 | 7.14459 | 272 ft | 19 kts | 137° |
| 2026-04-23 12:12 | 50.86419 | 7.14592 | 278 ft | 17 kts | 138° |
| 2026-04-23 12:13 | 50.86333 | 7.14713 | 280 ft | 17 kts | 138° |
| 2026-04-23 12:13 | 50.86227 | 7.14865 | 283 ft | 30 kts | 137° |
| 2026-04-23 12:13 | 50.86069 | 7.15098 | 286 ft | 31 kts | 136° |
| 2026-04-23 12:13 | 50.85914 | 7.15323 | 294 ft | 29 kts | 137° |
| 2026-04-23 12:14 | 50.85772 | 7.15531 | 302 ft | 26 kts | 137° |
| 2026-04-23 12:14 | 50.85641 | 7.15722 | 304 ft | 25 kts | 137° |
| 2026-04-23 12:14 | 50.85513 | 7.15902 | 307 ft | 25 kts | 138° |
| 2026-04-23 12:14 | 50.85392 | 7.16081 | 310 ft | 23 kts | 134° |
| 2026-04-23 12:15 | 50.85339 | 7.16292 | 314 ft | 19 kts | 89° |
| 2026-04-23 12:15 | 50.85399 | 7.16462 | 318 ft | 17 kts | 41° |
| 2026-04-23 12:15 | 50.85505 | 7.16510 | 319 ft | 16 kts | 358° |
| 2026-04-23 12:15 | 50.85639 | 7.16394 | 316 ft | 32 kts | 319° |
| 2026-04-23 12:16 | 50.85913 | 7.15994 | 305 ft | 91 kts | 317° |
| 2026-04-23 12:16 | 50.86570 | 7.15037 | 282 ft | 161 kts | 318° |
| 2026-04-23 12:16 | 50.87483 | 7.13770 | 834 ft | 176 kts | 320° |
| 2026-04-23 12:16 | 50.88387 | 7.12492 | 1946 ft | 176 kts | 320° |
| 2026-04-23 12:17 | 50.89327 | 7.11189 | 2742 ft | 187 kts | 322° |
| 2026-04-23 12:17 | 50.90328 | 7.09743 | 3240 ft | 209 kts | 315° |
| 2026-04-23 12:17 | 50.91058 | 7.07688 | 3942 ft | 221 kts | 287° |
| 2026-04-23 12:17 | 50.91193 | 7.05241 | 4670 ft | 228 kts | 264° |
| 2026-04-23 12:18 | 50.90731 | 7.02785 | 4959 ft | 242 kts | 248° |
| 2026-04-23 12:18 | 50.90087 | 7.00140 | 5043 ft | 272 kts | 249° |
| 2026-04-23 12:18 | 50.89420 | 6.97267 | 5049 ft | 279 kts | 250° |
| 2026-04-23 12:18 | 50.88776 | 6.94344 | 5419 ft | 281 kts | 251° |
| 2026-04-23 12:19 | 50.88164 | 6.91419 | 6041 ft | 283 kts | 252° |
| 2026-04-23 12:19 | 50.87567 | 6.88417 | 6630 ft | 287 kts | 252° |
| 2026-04-23 12:19 | 50.86950 | 6.85386 | 7176 ft | 291 kts | 251° |
| 2026-04-23 12:19 | 50.86310 | 6.82361 | 7770 ft | 293 kts | 251° |
| 2026-04-23 12:20 | 50.85650 | 6.79295 | 8398 ft | 296 kts | 250° |
| 2026-04-23 12:20 | 50.84983 | 6.76232 | 9021 ft | 297 kts | 250° |
| 2026-04-23 12:20 | 50.84303 | 6.73084 | 9621 ft | 301 kts | 250° |
| 2026-04-23 12:20 | 50.83619 | 6.69944 | 10241 ft | 304 kts | 250° |
| 2026-04-23 12:21 | 50.82912 | 6.66683 | 10440 ft | 321 kts | 251° |
| 2026-04-23 12:21 | 50.82395 | 6.63158 | 10592 ft | 338 kts | 262° |
| 2026-04-23 12:21 | 50.82252 | 6.59356 | 10965 ft | 351 kts | 272° |
| 2026-04-23 12:21 | 50.82338 | 6.55469 | 11699 ft | 354 kts | 272° |
| 2026-04-23 12:22 | 50.82402 | 6.51558 | 12396 ft | 358 kts | 272° |
| 2026-04-23 12:22 | 50.82455 | 6.47608 | 13115 ft | 361 kts | 272° |
| 2026-04-23 12:22 | 50.82499 | 6.43684 | 13796 ft | 364 kts | 272° |
| 2026-04-23 12:22 | 50.82543 | 6.39659 | 14458 ft | 367 kts | 272° |
| 2026-04-23 12:23 | 50.82592 | 6.35593 | 15050 ft | 372 kts | 272° |
| 2026-04-23 12:23 | 50.82643 | 6.31477 | 15665 ft | 375 kts | 272° |
| 2026-04-23 12:23 | 50.82689 | 6.27344 | 16284 ft | 379 kts | 272° |
| 2026-04-23 12:23 | 50.82731 | 6.23136 | 16889 ft | 383 kts | 272° |
| 2026-04-23 12:24 | 50.82774 | 6.18917 | 17469 ft | 387 kts | 272° |
| 2026-04-23 12:24 | 50.82818 | 6.14621 | 18074 ft | 391 kts | 272° |
| 2026-04-23 12:24 | 50.82862 | 6.10282 | 18675 ft | 394 kts | 272° |
| 2026-04-23 12:24 | 50.82902 | 6.05967 | 19203 ft | 398 kts | 272° |
| 2026-04-23 12:25 | 50.82934 | 6.01571 | 19747 ft | 402 kts | 271° |
| 2026-04-23 12:25 | 50.82844 | 5.97150 | 20298 ft | 405 kts | 269° |
| 2026-04-23 12:25 | 50.82746 | 5.92668 | 20841 ft | 409 kts | 269° |
| 2026-04-23 12:25 | 50.82653 | 5.88152 | 21386 ft | 412 kts | 269° |
| 2026-04-23 12:26 | 50.82561 | 5.83620 | 21941 ft | 416 kts | 269° |
| 2026-04-23 12:26 | 50.82465 | 5.79005 | 22506 ft | 419 kts | 269° |
| 2026-04-23 12:26 | 50.82364 | 5.74379 | 23062 ft | 423 kts | 269° |
| 2026-04-23 12:26 | 50.82260 | 5.69723 | 23592 ft | 427 kts | 269° |
| 2026-04-23 12:27 | 50.82153 | 5.65015 | 24121 ft | 430 kts | 269° |
| 2026-04-23 12:27 | 50.82045 | 5.60275 | 24616 ft | 432 kts | 269° |
| 2026-04-23 12:27 | 50.81937 | 5.55506 | 25110 ft | 434 kts | 269° |
| 2026-04-23 12:27 | 50.81827 | 5.50732 | 25600 ft | 436 kts | 268° |
| 2026-04-23 12:28 | 50.81713 | 5.45988 | 26037 ft | 438 kts | 268° |
| 2026-04-23 12:28 | 50.81593 | 5.41148 | 26432 ft | 441 kts | 268° |
| 2026-04-23 12:28 | 50.81470 | 5.36300 | 26841 ft | 443 kts | 268° |
| 2026-04-23 12:28 | 50.81346 | 5.31400 | 27250 ft | 445 kts | 268° |
| 2026-04-23 12:29 | 50.81220 | 5.26497 | 27640 ft | 447 kts | 268° |
| 2026-04-23 12:29 | 50.81089 | 5.21570 | 28017 ft | 449 kts | 268° |
| 2026-04-23 12:29 | 50.80956 | 5.16617 | 28417 ft | 452 kts | 268° |
| 2026-04-23 12:29 | 50.80823 | 5.11710 | 28784 ft | 453 kts | 268° |
| 2026-04-23 12:30 | 50.80638 | 5.06717 | 29134 ft | 456 kts | 264° |
| 2026-04-23 12:30 | 50.80113 | 5.01759 | 29475 ft | 458 kts | 256° |
| 2026-04-23 12:30 | 50.79238 | 4.96901 | 29842 ft | 460 kts | 252° |
| 2026-04-23 12:30 | 50.78622 | 4.93701 | 30076 ft | 462 kts | 253° |